Time;durP1;ratioP1;P1;durP2;ratioP2;P2;SDS_P1;SDS_P2;PMS_P1;PMS_P2;Temp;Humidity;BMP_temperature;BMP_pressure;BME280_temperature;BME280_humidity;BME280_pressure;Samples;Min_cycle;Max_cycle;Signal;HPM_P1;HPM_P2
2021/08/29 00:01:59;;;;;;;4.07;2.58;;;;;;;;;;5047713;28;20895;-57
2021/08/29 00:04:26;;;;;;;5.28;2.20;;;;;;;;;;5060559;28;20535;-58
2021/08/29 00:06:52;;;;;;;3.88;2.42;;;;;;;;;;5044241;28;20932;-59
2021/08/29 00:09:18;;;;;;;2.83;2.07;;;;;;;;;;5061874;28;20419;-57
2021/08/29 00:11:44;;;;;;;2.88;1.98;;;;;;;;;;5047866;28;20821;-59
2021/08/29 00:14:10;;;;;;;3.60;2.28;;;;;;;;;;5055841;28;20405;-59
2021/08/29 00:16:36;;;;;;;4.18;2.33;;;;;;;;;;5063971;28;20426;-60
2021/08/29 00:19:02;;;;;;;2.72;1.90;;;;;;;;;;5047187;28;20398;-59
2021/08/29 00:21:28;;;;;;;3.40;2.42;;;;;;;;;;5048336;28;20482;-60
2021/08/29 00:23:54;;;;;;;2.50;1.80;;;;;;;;;;5050370;28;20458;-58
2021/08/29 00:26:20;;;;;;;3.08;2.17;;;;;;;;;;5054748;28;20453;-60
2021/08/29 00:28:46;;;;;;;2.88;1.70;;;;;;;;;;5059179;28;20459;-57
2021/08/29 00:31:12;;;;;;;3.13;1.98;;;;;;;;;;5048575;28;20395;-59
2021/08/29 00:33:38;;;;;;;3.90;2.60;;;;;;;;;;5061101;28;20392;-58
2021/08/29 00:36:04;;;;;;;3.28;2.13;;;;;;;;;;5066657;28;20375;-59
2021/08/29 00:38:30;;;;;;;3.83;2.65;;;;;;;;;;5061711;28;20379;-58
2021/08/29 00:40:56;;;;;;;3.72;2.67;;;;;;;;;;5053730;28;20403;-55
2021/08/29 00:43:23;;;;;;;3.00;2.00;;;;;;;;;;5054498;28;20397;-56
2021/08/29 00:45:51;;;;;;;3.50;2.55;;;;;;;;;;5069615;28;20848;-57
2021/08/29 00:48:17;;;;;;;2.83;1.90;;;;;;;;;;5045156;28;20429;-58
2021/08/29 00:50:47;;;;;;;2.70;1.92;;;;;;;;;;5059694;28;20740;-59
2021/08/29 00:53:16;;;;;;;2.60;1.88;;;;;;;;;;5045426;28;20496;-59
2021/08/29 00:55:43;;;;;;;4.53;2.17;;;;;;;;;;5038141;28;20457;-58
2021/08/29 00:58:08;;;;;;;3.50;2.40;;;;;;;;;;5058144;28;20839;-60
2021/08/29 01:00:36;;;;;;;4.25;2.35;;;;;;;;;;5031834;28;20482;-60
2021/08/29 01:03:02;;;;;;;2.20;1.80;;;;;;;;;;5054617;28;20411;-60
2021/08/29 01:05:29;;;;;;;2.70;1.88;;;;;;;;;;5062745;28;20379;-60
2021/08/29 01:08:03;;;;;;;3.08;2.05;;;;;;;;;;5060742;28;20399;-57
2021/08/29 01:10:33;;;;;;;3.75;2.47;;;;;;;;;;5044777;28;20401;-57
2021/08/29 01:13:00;;;;;;;3.08;1.85;;;;;;;;;;5044725;28;20484;-57
2021/08/29 01:15:28;;;;;;;2.55;1.80;;;;;;;;;;5044744;28;20397;-57
2021/08/29 01:17:54;;;;;;;3.53;2.28;;;;;;;;;;5056071;28;20425;-58
2021/08/29 01:20:22;;;;;;;2.38;1.60;;;;;;;;;;5063391;28;20470;-56
2021/08/29 01:22:49;;;;;;;2.75;1.90;;;;;;;;;;5060249;28;21330;-57
2021/08/29 01:25:19;;;;;;;3.35;2.20;;;;;;;;;;5033708;28;20950;-57
2021/08/29 01:27:50;;;;;;;3.10;1.67;;;;;;;;;;5052866;28;20385;-56
2021/08/29 01:30:16;;;;;;;2.10;1.23;;;;;;;;;;5046486;28;20407;-58
2021/08/29 01:32:43;;;;;;;2.28;1.45;;;;;;;;;;5057756;28;20470;-57
2021/08/29 01:35:10;;;;;;;2.15;1.60;;;;;;;;;;5063909;28;20381;-57
2021/08/29 01:37:36;;;;;;;3.25;1.73;;;;;;;;;;5063104;28;20388;-57
2021/08/29 01:40:03;;;;;;;2.88;1.90;;;;;;;;;;5050534;28;20409;-58
2021/08/29 01:42:29;;;;;;;2.47;1.80;;;;;;;;;;5059960;28;20427;-57
2021/08/29 01:44:55;;;;;;;2.73;1.60;;;;;;;;;;5064368;28;20401;-58
2021/08/29 01:47:21;;;;;;;2.30;1.60;;;;;;;;;;5054878;28;20406;-57
2021/08/29 01:49:47;;;;;;;3.05;1.98;;;;;;;;;;5065620;28;20458;-58
2021/08/29 01:52:14;;;;;;;2.20;1.37;;;;;;;;;;5068378;28;20471;-59
2021/08/29 01:54:40;;;;;;;2.35;1.35;;;;;;;;;;5060365;28;20419;-58
2021/08/29 01:57:11;;;;;;;1.93;1.40;;;;;;;;;;5061064;28;20521;-58
2021/08/29 01:59:38;;;;;;;1.98;1.50;;;;;;;;;;5055523;28;20398;-57
2021/08/29 02:02:04;;;;;;;1.90;1.50;;;;;;;;;;5046113;28;20904;-60
2021/08/29 02:04:30;;;;;;;3.05;1.92;;;;;;;;;;5062969;28;20883;-59
2021/08/29 02:07:14;;;;;;;2.78;1.63;;;;;;;;;;5061768;28;20830;-56
2021/08/29 02:09:43;;;;;;;2.50;1.58;;;;;;;;;;5054759;28;20403;-57
2021/08/29 02:12:10;;;;;;;2.65;1.92;;;;;;;;;;5054110;28;20474;-57
2021/08/29 02:15:15;;;;;;;2.50;1.83;;;;;;;;;;5049409;28;20430;-55
2021/08/29 02:17:41;;;;;;;2.88;1.98;;;;;;;;;;4936323;29;20443;-58
2021/08/29 02:20:10;;;;;;;2.88;1.50;;;;;;;;;;4938894;28;20815;-59
2021/08/29 02:22:36;;;;;;;2.70;1.70;;;;;;;;;;4991815;28;20396;-59
2021/08/29 02:25:06;;;;;;;2.45;1.77;;;;;;;;;;5043664;28;20531;-57
2021/08/29 02:27:32;;;;;;;2.28;1.65;;;;;;;;;;5068012;28;20384;-58
2021/08/29 02:30:00;;;;;;;2.97;1.98;;;;;;;;;;5053965;28;20423;-58
2021/08/29 02:32:26;;;;;;;2.80;1.70;;;;;;;;;;5067134;28;20474;-58
2021/08/29 02:34:52;;;;;;;2.67;1.80;;;;;;;;;;5050679;28;20386;-54
2021/08/29 02:37:19;;;;;;;3.37;2.13;;;;;;;;;;5044912;28;20470;-58
2021/08/29 02:39:45;;;;;;;3.10;1.90;;;;;;;;;;5048419;28;20494;-58
2021/08/29 02:42:11;;;;;;;2.78;1.73;;;;;;;;;;5052470;28;20398;-56
2021/08/29 02:44:38;;;;;;;2.28;1.67;;;;;;;;;;5057954;28;20865;-56
2021/08/29 02:47:05;;;;;;;3.30;1.90;;;;;;;;;;5050571;28;20395;-58
2021/08/29 02:49:31;;;;;;;3.83;2.47;;;;;;;;;;5052069;28;20405;-56
2021/08/29 02:51:57;;;;;;;3.45;2.33;;;;;;;;;;5059257;28;20396;-59
2021/08/29 02:54:27;;;;;;;3.03;1.75;;;;;;;;;;5046046;28;20398;-57
2021/08/29 02:56:55;;;;;;;3.00;1.80;;;;;;;;;;5053880;28;20913;-58
2021/08/29 02:59:21;;;;;;;3.22;2.00;;;;;;;;;;5043585;28;20472;-58
2021/08/29 03:01:47;;;;;;;2.45;1.55;;;;;;;;;;5049243;28;20396;-58
2021/08/29 03:04:13;;;;;;;1.90;1.35;;;;;;;;;;5048995;28;20439;-59
2021/08/29 03:06:39;;;;;;;2.28;1.48;;;;;;;;;;5056565;28;20438;-59
2021/08/29 03:09:06;;;;;;;2.20;1.60;;;;;;;;;;5057179;28;20955;-57
2021/08/29 03:11:32;;;;;;;2.45;1.63;;;;;;;;;;5055736;28;20398;-59
2021/08/29 03:13:58;;;;;;;1.93;1.57;;;;;;;;;;5052273;28;20907;-57
2021/08/29 03:16:24;;;;;;;1.70;1.20;;;;;;;;;;5050617;28;20385;-60
2021/08/29 03:18:50;;;;;;;1.83;1.30;;;;;;;;;;5050360;28;20486;-60
2021/08/29 03:21:16;;;;;;;1.60;1.00;;;;;;;;;;5050389;28;21261;-54
2021/08/29 03:23:42;;;;;;;2.10;1.40;;;;;;;;;;5049663;28;20942;-60
2021/08/29 03:26:09;;;;;;;2.30;1.60;;;;;;;;;;5023681;28;20484;-61
2021/08/29 03:28:35;;;;;;;1.65;1.08;;;;;;;;;;5068071;28;20463;-60
2021/08/29 03:31:01;;;;;;;1.55;1.20;;;;;;;;;;5042838;28;20409;-59
2021/08/29 03:33:27;;;;;;;1.98;1.33;;;;;;;;;;5056456;28;20487;-60
2021/08/29 03:35:54;;;;;;;1.90;1.20;;;;;;;;;;5055437;28;20896;-61
2021/08/29 03:38:21;;;;;;;2.03;1.23;;;;;;;;;;5052766;28;20470;-61
2021/08/29 03:40:48;;;;;;;2.80;1.20;;;;;;;;;;5049229;28;20401;-58
2021/08/29 03:43:15;;;;;;;2.38;1.40;;;;;;;;;;5057463;28;20397;-59
2021/08/29 03:45:41;;;;;;;2.30;1.30;;;;;;;;;;5046967;28;20411;-57
2021/08/29 03:48:07;;;;;;;1.80;1.13;;;;;;;;;;5056983;28;20521;-58
2021/08/29 03:50:33;;;;;;;4.55;1.10;;;;;;;;;;5058684;28;20406;-59
2021/08/29 03:52:59;;;;;;;1.52;1.00;;;;;;;;;;5057365;28;20476;-59
2021/08/29 03:55:26;;;;;;;1.45;0.98;;;;;;;;;;5051812;28;20491;-60
2021/08/29 03:57:53;;;;;;;1.42;0.93;;;;;;;;;;5048856;28;20852;-59
2021/08/29 04:00:19;;;;;;;1.20;0.80;;;;;;;;;;5045493;28;20543;-60
2021/08/29 04:02:45;;;;;;;1.20;0.90;;;;;;;;;;5047617;28;20406;-61
2021/08/29 04:05:11;;;;;;;2.13;1.48;;;;;;;;;;5024116;28;20400;-60
2021/08/29 04:07:38;;;;;;;2.97;1.30;;;;;;;;;;5053543;28;20442;-61
2021/08/29 04:10:04;;;;;;;2.80;1.30;;;;;;;;;;5050093;28;20446;-60
2021/08/29 04:12:31;;;;;;;1.77;1.27;;;;;;;;;;5050960;28;20396;-57
2021/08/29 04:14:57;;;;;;;1.73;1.33;;;;;;;;;;5047994;28;20389;-58
2021/08/29 04:17:25;;;;;;;1.60;1.15;;;;;;;;;;5046883;28;20484;-60
2021/08/29 04:19:52;;;;;;;1.58;1.17;;;;;;;;;;5044292;28;20796;-54
2021/08/29 04:22:18;;;;;;;1.50;1.10;;;;;;;;;;5050184;28;20389;-54
2021/08/29 04:24:44;;;;;;;1.67;1.00;;;;;;;;;;5052178;28;20406;-56
2021/08/29 04:27:11;;;;;;;1.60;1.00;;;;;;;;;;5060720;28;20699;-52
2021/08/29 04:29:37;;;;;;;1.20;0.80;;;;;;;;;;5053103;28;20462;-54
2021/08/29 04:32:04;;;;;;;1.33;0.90;;;;;;;;;;5056265;28;20484;-56
2021/08/29 04:34:30;;;;;;;1.88;0.95;;;;;;;;;;5055899;28;20384;-55
2021/08/29 04:36:56;;;;;;;1.35;1.00;;;;;;;;;;5052039;28;20400;-61
2021/08/29 04:39:22;;;;;;;1.38;1.05;;;;;;;;;;5046765;28;20404;-60
2021/08/29 04:41:48;;;;;;;1.38;0.90;;;;;;;;;;5060576;28;20425;-57
2021/08/29 04:44:14;;;;;;;0.80;0.63;;;;;;;;;;5048082;28;20595;-58
2021/08/29 04:46:40;;;;;;;1.63;0.95;;;;;;;;;;5049538;28;20455;-55
2021/08/29 04:49:06;;;;;;;1.10;0.77;;;;;;;;;;5063084;28;20414;-57
2021/08/29 04:51:32;;;;;;;1.60;1.10;;;;;;;;;;5058887;28;20950;-58
2021/08/29 04:53:58;;;;;;;1.52;1.00;;;;;;;;;;5058294;28;20387;-57
2021/08/29 04:56:24;;;;;;;1.20;0.87;;;;;;;;;;5050718;28;20416;-58
2021/08/29 04:58:50;;;;;;;1.50;0.90;;;;;;;;;;5049015;28;20479;-56
2021/08/29 05:01:17;;;;;;;1.05;0.75;;;;;;;;;;5047503;28;20461;-59
2021/08/29 05:03:43;;;;;;;1.57;1.00;;;;;;;;;;5047034;28;20390;-55
2021/08/29 05:06:09;;;;;;;1.40;0.95;;;;;;;;;;5042482;28;20448;-56
2021/08/29 05:08:35;;;;;;;1.60;1.00;;;;;;;;;;5059653;28;20418;-58
2021/08/29 05:11:01;;;;;;;1.58;1.02;;;;;;;;;;5066441;28;20399;-59
2021/08/29 05:13:27;;;;;;;1.53;1.07;;;;;;;;;;5046352;28;20398;-57
2021/08/29 05:15:54;;;;;;;1.83;0.70;;;;;;;;;;5050129;28;20392;-57
2021/08/29 05:18:20;;;;;;;0.90;0.70;;;;;;;;;;5040516;28;20440;-57
2021/08/29 05:20:46;;;;;;;2.20;1.00;;;;;;;;;;5057207;28;20849;-58
2021/08/29 05:23:12;;;;;;;1.20;0.93;;;;;;;;;;5065218;28;20391;-58
2021/08/29 05:25:38;;;;;;;1.00;0.82;;;;;;;;;;5050116;28;20400;-58
2021/08/29 05:28:05;;;;;;;1.17;0.83;;;;;;;;;;5062335;28;20388;-58
2021/08/29 05:30:31;;;;;;;1.58;1.17;;;;;;;;;;5053352;28;20413;-57
2021/08/29 05:32:57;;;;;;;2.10;1.30;;;;;;;;;;5051305;28;20906;-58
2021/08/29 05:35:23;;;;;;;1.38;1.02;;;;;;;;;;5061848;28;20390;-56
2021/08/29 05:37:49;;;;;;;1.92;1.23;;;;;;;;;;5053535;28;20389;-57
2021/08/29 05:40:15;;;;;;;2.30;1.48;;;;;;;;;;5058642;28;20887;-56
2021/08/29 05:42:41;;;;;;;1.97;1.20;;;;;;;;;;5064378;28;20437;-58
2021/08/29 05:45:07;;;;;;;2.53;1.50;;;;;;;;;;5050017;28;20385;-57
2021/08/29 05:47:33;;;;;;;1.90;1.33;;;;;;;;;;5048062;28;20480;-56
2021/08/29 05:49:59;;;;;;;2.17;1.50;;;;;;;;;;5056440;28;20408;-58
2021/08/29 05:52:25;;;;;;;3.25;1.40;;;;;;;;;;5057602;28;20462;-57
2021/08/29 05:54:51;;;;;;;2.20;1.33;;;;;;;;;;5048133;28;20882;-57
2021/08/29 05:57:17;;;;;;;1.90;1.33;;;;;;;;;;5053072;28;20397;-58
2021/08/29 05:59:43;;;;;;;2.47;1.48;;;;;;;;;;5053111;28;20857;-58
2021/08/29 06:02:09;;;;;;;2.42;1.52;;;;;;;;;;5054368;28;20404;-58
2021/08/29 06:04:36;;;;;;;3.75;1.98;;;;;;;;;;5045731;28;20386;-58
2021/08/29 06:07:02;;;;;;;2.88;1.65;;;;;;;;;;5058614;28;20534;-57
2021/08/29 06:09:28;;;;;;;2.88;1.63;;;;;;;;;;5060982;28;20412;-57
2021/08/29 06:11:54;;;;;;;2.85;1.65;;;;;;;;;;5055627;28;20393;-58
2021/08/29 06:14:20;;;;;;;2.67;1.40;;;;;;;;;;5046714;28;20773;-58
2021/08/29 06:16:46;;;;;;;2.13;1.40;;;;;;;;;;5061363;28;20421;-58
2021/08/29 06:19:12;;;;;;;2.10;1.48;;;;;;;;;;5059175;28;20457;-58
2021/08/29 06:21:38;;;;;;;2.33;1.45;;;;;;;;;;5044858;28;20433;-56
2021/08/29 06:24:04;;;;;;;2.05;1.40;;;;;;;;;;5050334;28;20431;-57
2021/08/29 06:26:30;;;;;;;2.55;1.45;;;;;;;;;;5052520;28;20844;-58
2021/08/29 06:28:56;;;;;;;2.13;1.30;;;;;;;;;;5051532;28;20370;-59
2021/08/29 06:31:22;;;;;;;2.00;1.37;;;;;;;;;;5049129;28;20408;-58
2021/08/29 06:33:48;;;;;;;2.40;1.50;;;;;;;;;;5049953;28;20396;-57
2021/08/29 06:36:14;;;;;;;2.35;1.40;;;;;;;;;;5052105;28;20390;-58
2021/08/29 06:38:40;;;;;;;3.20;1.60;;;;;;;;;;5052446;28;21146;-59
2021/08/29 06:41:06;;;;;;;2.25;1.50;;;;;;;;;;5046997;28;20443;-58
2021/08/29 06:43:32;;;;;;;2.20;1.40;;;;;;;;;;5062475;28;20504;-59
2021/08/29 06:45:58;;;;;;;2.20;1.40;;;;;;;;;;5051797;28;20866;-59
2021/08/29 06:48:24;;;;;;;1.83;1.25;;;;;;;;;;5051793;28;20497;-59
2021/08/29 06:50:50;;;;;;;1.85;1.10;;;;;;;;;;5034638;28;20484;-57
2021/08/29 06:53:16;;;;;;;1.98;1.30;;;;;;;;;;5051788;28;20770;-57
2021/08/29 06:55:42;;;;;;;1.75;1.25;;;;;;;;;;5053324;28;20857;-59
2021/08/29 06:58:08;;;;;;;2.72;1.35;;;;;;;;;;5058593;28;20391;-58
2021/08/29 07:00:34;;;;;;;2.88;1.67;;;;;;;;;;5054852;28;20405;-59
2021/08/29 07:03:00;;;;;;;2.17;1.33;;;;;;;;;;5051036;28;20385;-58
2021/08/29 07:05:26;;;;;;;2.17;1.20;;;;;;;;;;5053829;28;20382;-59
2021/08/29 07:07:53;;;;;;;2.50;1.50;;;;;;;;;;5054498;28;20395;-59
2021/08/29 07:10:19;;;;;;;3.27;1.83;;;;;;;;;;5048368;28;20444;-57
2021/08/29 07:12:45;;;;;;;2.73;1.90;;;;;;;;;;5045591;28;20865;-58
2021/08/29 07:15:11;;;;;;;2.17;1.50;;;;;;;;;;5047565;28;20406;-59
2021/08/29 07:17:37;;;;;;;2.43;1.40;;;;;;;;;;5046313;28;20458;-59
2021/08/29 07:20:03;;;;;;;2.20;1.40;;;;;;;;;;5050319;28;20451;-58
2021/08/29 07:22:29;;;;;;;2.55;1.42;;;;;;;;;;5041124;28;20398;-59
2021/08/29 07:24:55;;;;;;;2.93;1.83;;;;;;;;;;5059122;28;20807;-58
2021/08/29 07:27:21;;;;;;;2.20;1.40;;;;;;;;;;5048105;28;20397;-59
2021/08/29 07:29:47;;;;;;;2.75;1.67;;;;;;;;;;5046319;28;20479;-59
2021/08/29 07:32:13;;;;;;;2.97;1.77;;;;;;;;;;5045384;28;20492;-59
2021/08/29 07:34:40;;;;;;;3.17;1.80;;;;;;;;;;5060035;28;20718;-58
2021/08/29 07:37:06;;;;;;;2.20;1.33;;;;;;;;;;5046882;28;20443;-58
2021/08/29 07:39:32;;;;;;;2.78;1.67;;;;;;;;;;5047071;28;20406;-55
2021/08/29 07:41:58;;;;;;;1.98;1.27;;;;;;;;;;5043205;28;20394;-59
2021/08/29 07:44:25;;;;;;;1.80;1.20;;;;;;;;;;5053796;28;20431;-59
2021/08/29 07:46:51;;;;;;;2.93;1.57;;;;;;;;;;5050184;28;20456;-58
2021/08/29 07:49:17;;;;;;;2.25;1.55;;;;;;;;;;5048930;28;20389;-59
2021/08/29 07:51:43;;;;;;;2.75;1.50;;;;;;;;;;5046493;28;20954;-59
2021/08/29 07:54:09;;;;;;;2.78;1.55;;;;;;;;;;5052492;28;20387;-59
2021/08/29 07:56:35;;;;;;;2.47;1.15;;;;;;;;;;5053319;28;21315;-59
2021/08/29 07:59:01;;;;;;;2.45;1.50;;;;;;;;;;5041345;28;20399;-59
2021/08/29 08:01:27;;;;;;;2.53;1.65;;;;;;;;;;5045195;28;20409;-59
2021/08/29 08:03:53;;;;;;;1.73;1.13;;;;;;;;;;5040551;28;20433;-59
2021/08/29 08:06:19;;;;;;;2.95;1.55;;;;;;;;;;5051229;28;20710;-57
2021/08/29 08:08:45;;;;;;;2.43;1.60;;;;;;;;;;5049360;28;20383;-59
2021/08/29 08:11:11;;;;;;;1.83;1.10;;;;;;;;;;5049187;28;20422;-58
2021/08/29 08:13:37;;;;;;;2.13;1.40;;;;;;;;;;5037312;28;20401;-58
2021/08/29 08:16:03;;;;;;;2.72;1.65;;;;;;;;;;5038202;28;20480;-57
2021/08/29 08:18:29;;;;;;;2.67;1.40;;;;;;;;;;5045789;28;20910;-59
2021/08/29 08:20:57;;;;;;;2.58;1.40;;;;;;;;;;5051128;28;21033;-58
2021/08/29 08:23:22;;;;;;;1.95;1.23;;;;;;;;;;5052070;28;20389;-58
2021/08/29 08:25:48;;;;;;;2.83;1.40;;;;;;;;;;5041602;28;20938;-59
2021/08/29 08:28:14;;;;;;;2.35;1.40;;;;;;;;;;5043114;28;21265;-59
2021/08/29 08:30:40;;;;;;;3.75;1.92;;;;;;;;;;5043065;28;20502;-59
2021/08/29 08:33:06;;;;;;;2.75;1.63;;;;;;;;;;5054005;28;20838;-58
2021/08/29 08:35:32;;;;;;;2.40;1.50;;;;;;;;;;5043989;28;20492;-58
2021/08/29 08:37:58;;;;;;;2.10;1.50;;;;;;;;;;5041259;28;20737;-58
2021/08/29 08:40:24;;;;;;;2.08;1.38;;;;;;;;;;5043998;28;20411;-59
2021/08/29 08:42:50;;;;;;;3.28;1.45;;;;;;;;;;5045417;28;20455;-55
2021/08/29 08:45:16;;;;;;;2.08;1.10;;;;;;;;;;5056610;28;20389;-57
2021/08/29 08:47:43;;;;;;;2.40;1.50;;;;;;;;;;5039823;28;20782;-58
2021/08/29 08:50:10;;;;;;;1.98;1.38;;;;;;;;;;5057564;28;20400;-58
2021/08/29 08:52:36;;;;;;;2.58;1.60;;;;;;;;;;5041498;28;20474;-57
2021/08/29 08:55:02;;;;;;;3.15;1.55;;;;;;;;;;5051103;28;20393;-57
2021/08/29 08:57:28;;;;;;;2.45;1.17;;;;;;;;;;5050362;28;20387;-59
2021/08/29 08:59:54;;;;;;;2.08;1.33;;;;;;;;;;5043349;28;20755;-58
2021/08/29 09:02:24;;;;;;;1.60;1.20;;;;;;;;;;5041522;28;20393;-58
2021/08/29 09:04:50;;;;;;;1.63;1.10;;;;;;;;;;5049184;28;20504;-59
2021/08/29 09:07:16;;;;;;;2.58;1.15;;;;;;;;;;5052366;28;20395;-59
2021/08/29 09:09:42;;;;;;;2.70;1.40;;;;;;;;;;5051313;28;20409;-59
2021/08/29 09:12:08;;;;;;;2.08;1.35;;;;;;;;;;5045009;28;20402;-59
2021/08/29 09:14:42;;;;;;;2.28;1.40;;;;;;;;;;5052002;28;20409;-59
2021/08/29 09:17:26;;;;;;;1.38;1.00;;;;;;;;;;5041702;28;20406;-59
2021/08/29 09:20:12;;;;;;;1.58;1.10;;;;;;;;;;5044503;28;20385;-57
2021/08/29 09:22:40;;;;;;;1.73;1.00;;;;;;;;;;5047530;28;20746;-57
2021/08/29 09:25:10;;;;;;;1.80;1.13;;;;;;;;;;5045955;28;20395;-57
2021/08/29 09:27:39;;;;;;;1.77;0.90;;;;;;;;;;5049020;28;20403;-59
2021/08/29 09:30:05;;;;;;;1.83;1.17;;;;;;;;;;5058602;28;20416;-58
2021/08/29 09:32:31;;;;;;;2.25;1.50;;;;;;;;;;5040635;28;20406;-59
2021/08/29 09:34:58;;;;;;;1.50;1.00;;;;;;;;;;5040276;28;20403;-59
2021/08/29 09:37:24;;;;;;;1.48;1.00;;;;;;;;;;5043664;28;20394;-58
2021/08/29 09:39:50;;;;;;;1.85;1.15;;;;;;;;;;5044447;28;20412;-59
2021/08/29 09:42:16;;;;;;;2.38;1.35;;;;;;;;;;5040365;28;20405;-57
2021/08/29 09:44:42;;;;;;;1.52;1.02;;;;;;;;;;5053172;28;20401;-59
2021/08/29 09:47:11;;;;;;;1.70;1.10;;;;;;;;;;5048113;28;20484;-59
2021/08/29 09:49:37;;;;;;;3.13;1.13;;;;;;;;;;5046010;28;20419;-59
2021/08/29 09:52:07;;;;;;;1.60;1.00;;;;;;;;;;5058522;28;20380;-58
2021/08/29 09:54:35;;;;;;;1.25;0.85;;;;;;;;;;5041721;28;20392;-58
2021/08/29 09:57:04;;;;;;;1.52;0.93;;;;;;;;;;5071023;28;20724;-58
2021/08/29 09:59:44;;;;;;;1.75;1.05;;;;;;;;;;5042348;28;20403;-58
2021/08/29 10:02:11;;;;;;;1.10;0.80;;;;;;;;;;5044022;28;20393;-58
2021/08/29 10:04:37;;;;;;;1.92;1.00;;;;;;;;;;5049191;28;20904;-59
2021/08/29 10:07:29;;;;;;;1.60;1.10;;;;;;;;;;5049417;28;20477;-58
2021/08/29 10:09:55;;;;;;;2.13;0.98;;;;;;;;;;5045143;28;20772;-58
2021/08/29 10:12:21;;;;;;;1.05;0.70;;;;;;;;;;5042687;28;20411;-58
2021/08/29 10:14:48;;;;;;;1.15;0.75;;;;;;;;;;5048340;28;20401;-57
2021/08/29 10:17:14;;;;;;;1.50;0.80;;;;;;;;;;5052573;28;20839;-57
2021/08/29 10:19:40;;;;;;;2.10;0.80;;;;;;;;;;5050258;28;20491;-56
2021/08/29 10:22:07;;;;;;;0.90;0.60;;;;;;;;;;5053298;28;20471;-53
2021/08/29 10:24:34;;;;;;;1.20;0.80;;;;;;;;;;5059745;28;20936;-57
2021/08/29 10:27:05;;;;;;;0.95;0.77;;;;;;;;;;5059399;28;20385;-57
2021/08/29 10:29:38;;;;;;;0.80;0.60;;;;;;;;;;5051912;28;20727;-56
2021/08/29 10:32:06;;;;;;;0.80;0.60;;;;;;;;;;5050350;28;20946;-55
2021/08/29 10:34:33;;;;;;;0.90;0.60;;;;;;;;;;5056377;28;20378;-56
2021/08/29 10:36:59;;;;;;;0.60;0.50;;;;;;;;;;5054483;28;20493;-56
2021/08/29 10:39:25;;;;;;;0.60;0.38;;;;;;;;;;5027361;28;20749;-54
2021/08/29 10:41:53;;;;;;;0.65;0.38;;;;;;;;;;5044799;28;20403;-57
2021/08/29 10:44:19;;;;;;;0.70;0.50;;;;;;;;;;5047701;28;20395;-56
2021/08/29 10:46:46;;;;;;;0.88;0.50;;;;;;;;;;5046396;28;20402;-58
2021/08/29 10:49:14;;;;;;;0.50;0.40;;;;;;;;;;5049152;28;20415;-57
2021/08/29 10:51:40;;;;;;;0.32;0.30;;;;;;;;;;5055442;28;20383;-57
2021/08/29 10:54:14;;;;;;;1.50;0.70;;;;;;;;;;5063045;28;20463;-56
2021/08/29 10:56:41;;;;;;;1.37;0.43;;;;;;;;;;5039462;28;20877;-55
2021/08/29 10:59:10;;;;;;;1.45;0.68;;;;;;;;;;5042162;28;20415;-55
2021/08/29 11:01:43;;;;;;;1.23;0.80;;;;;;;;;;5045878;28;20778;-57
2021/08/29 11:04:18;;;;;;;1.10;0.60;;;;;;;;;;5029686;28;20397;-57
2021/08/29 11:06:48;;;;;;;1.13;0.60;;;;;;;;;;5055683;28;20411;-58
2021/08/29 11:09:36;;;;;;;0.60;0.50;;;;;;;;;;5047330;28;20422;-58
2021/08/29 11:12:03;;;;;;;0.50;0.40;;;;;;;;;;5055456;28;20427;-57
2021/08/29 11:14:39;;;;;;;0.50;0.20;;;;;;;;;;5048028;28;20488;-54
2021/08/29 11:17:08;;;;;;;0.80;0.40;;;;;;;;;;5032535;28;20942;-53
2021/08/29 11:19:38;;;;;;;0.80;0.40;;;;;;;;;;5049467;28;20453;-56
2021/08/29 11:22:06;;;;;;;0.20;0.10;;;;;;;;;;5047944;28;20415;-56
2021/08/29 11:24:48;;;;;;;0.25;0.13;;;;;;;;;;5044707;28;20758;-54
2021/08/29 11:27:44;;;;;;;0.20;0.10;;;;;;;;;;5040108;28;20408;-54
2021/08/29 11:30:10;;;;;;;0.30;0.10;;;;;;;;;;5021875;28;20900;-55
2021/08/29 11:32:40;;;;;;;0.10;0.03;;;;;;;;;;5039779;28;20397;-54
2021/08/29 11:35:08;;;;;;;0.20;0.10;;;;;;;;;;5041820;28;20385;-58
2021/08/29 11:37:34;;;;;;;1.00;0.00;;;;;;;;;;5041420;28;20414;-55
2021/08/29 11:40:01;;;;;;;0.00;0.00;;;;;;;;;;5052081;28;20405;-57
2021/08/29 11:42:28;;;;;;;0.08;0.00;;;;;;;;;;5042469;28;20402;-57
2021/08/29 11:44:55;;;;;;;0.00;0.00;;;;;;;;;;5052683;28;20386;-56
2021/08/29 11:47:23;;;;;;;0.10;0.00;;;;;;;;;;5059915;28;20475;-58
2021/08/29 11:49:56;;;;;;;0.00;0.00;;;;;;;;;;5046197;28;20754;-58
2021/08/29 11:52:29;;;;;;;0.00;0.00;;;;;;;;;;5046561;28;20398;-57
2021/08/29 11:55:04;;;;;;;0.10;0.00;;;;;;;;;;5040742;28;20391;-53
2021/08/29 11:57:30;;;;;;;0.20;0.00;;;;;;;;;;5047592;28;20399;-56
2021/08/29 12:00:10;;;;;;;0.08;0.00;;;;;;;;;;5036049;28;20904;-58
2021/08/29 12:02:41;;;;;;;0.10;0.00;;;;;;;;;;5047640;28;20448;-56
2021/08/29 12:05:15;;;;;;;0.00;0.00;;;;;;;;;;5047568;28;21097;-54
2021/08/29 12:07:45;;;;;;;0.10;0.00;;;;;;;;;;5045249;28;20492;-54
2021/08/29 12:10:12;;;;;;;0.10;0.10;;;;;;;;;;5037479;28;20978;-56
2021/08/29 12:12:39;;;;;;;0.10;0.00;;;;;;;;;;5049925;28;20472;-55
2021/08/29 12:15:05;;;;;;;0.00;0.00;;;;;;;;;;5053714;28;20393;-53
2021/08/29 12:17:32;;;;;;;0.00;0.00;;;;;;;;;;5044883;28;20421;-53
2021/08/29 12:19:58;;;;;;;0.00;0.00;;;;;;;;;;5044399;28;20480;-56
2021/08/29 12:22:24;;;;;;;0.10;0.10;;;;;;;;;;5052106;28;20788;-56
2021/08/29 12:24:51;;;;;;;0.00;0.00;;;;;;;;;;5040453;28;20746;-55
2021/08/29 12:27:18;;;;;;;0.03;0.00;;;;;;;;;;5049640;28;20750;-56
2021/08/29 12:29:45;;;;;;;0.08;0.00;;;;;;;;;;5049370;28;20513;-57
2021/08/29 12:32:12;;;;;;;0.10;0.10;;;;;;;;;;5054629;28;20744;-53
2021/08/29 12:34:38;;;;;;;0.98;0.20;;;;;;;;;;5051772;28;20378;-52
2021/08/29 12:37:10;;;;;;;0.08;0.05;;;;;;;;;;5041460;28;20385;-56
2021/08/29 12:39:36;;;;;;;0.20;0.10;;;;;;;;;;5042994;28;20403;-56
2021/08/29 12:42:15;;;;;;;0.00;0.00;;;;;;;;;;5049595;28;20865;-56
2021/08/29 12:44:40;;;;;;;0.30;0.00;;;;;;;;;;5043473;28;20741;-56
2021/08/29 12:47:06;;;;;;;0.10;0.10;;;;;;;;;;5047668;28;20404;-55
2021/08/29 12:49:32;;;;;;;0.20;0.00;;;;;;;;;;5043678;28;20814;-57
2021/08/29 12:51:59;;;;;;;0.00;0.00;;;;;;;;;;5042455;28;20466;-54
2021/08/29 12:54:25;;;;;;;0.10;0.00;;;;;;;;;;5037707;28;20400;-53
2021/08/29 12:56:51;;;;;;;0.57;0.10;;;;;;;;;;5036955;28;20482;-57
2021/08/29 12:59:27;;;;;;;0.20;0.10;;;;;;;;;;5034673;28;20414;-56
2021/08/29 13:01:53;;;;;;;0.55;0.10;;;;;;;;;;5039234;28;20404;-54
2021/08/29 13:04:26;;;;;;;0.20;0.10;;;;;;;;;;5038191;28;20439;-57
2021/08/29 13:07:09;;;;;;;0.30;0.15;;;;;;;;;;5035049;28;20385;-54
2021/08/29 13:09:36;;;;;;;0.03;0.00;;;;;;;;;;5034582;28;22458;-56
2021/08/29 13:12:03;;;;;;;0.50;0.10;;;;;;;;;;5036734;28;20397;-54
2021/08/29 13:14:30;;;;;;;0.30;0.10;;;;;;;;;;5039119;28;20432;-54
2021/08/29 13:16:56;;;;;;;0.08;0.08;;;;;;;;;;5040137;28;20752;-54
2021/08/29 13:19:25;;;;;;;0.40;0.15;;;;;;;;;;5037399;28;20946;-57
2021/08/29 13:21:58;;;;;;;0.22;0.10;;;;;;;;;;5046024;28;20406;-55
2021/08/29 13:24:25;;;;;;;0.10;0.10;;;;;;;;;;5040149;28;20389;-56
2021/08/29 13:26:51;;;;;;;0.22;0.15;;;;;;;;;;5041346;28;20383;-56
2021/08/29 13:29:18;;;;;;;0.60;0.20;;;;;;;;;;5046748;28;20485;-53
2021/08/29 13:31:43;;;;;;;0.95;0.20;;;;;;;;;;5056337;28;20392;-56
2021/08/29 13:34:10;;;;;;;0.50;0.10;;;;;;;;;;5050964;28;20453;-58
2021/08/29 13:36:43;;;;;;;0.08;0.03;;;;;;;;;;5055621;28;20406;-56
2021/08/29 13:39:13;;;;;;;0.17;0.10;;;;;;;;;;5054459;28;20390;-56
2021/08/29 13:41:39;;;;;;;0.22;0.10;;;;;;;;;;5044250;28;20394;-56
2021/08/29 13:44:06;;;;;;;0.38;0.20;;;;;;;;;;5050106;28;20412;-54
2021/08/29 13:46:32;;;;;;;0.40;0.10;;;;;;;;;;5062560;28;20804;-57
2021/08/29 13:48:58;;;;;;;0.22;0.17;;;;;;;;;;5053495;28;20377;-53
2021/08/29 13:51:24;;;;;;;0.30;0.10;;;;;;;;;;5053146;28;20421;-55
2021/08/29 13:53:51;;;;;;;0.68;0.20;;;;;;;;;;5045065;28;20391;-54
2021/08/29 13:56:17;;;;;;;0.10;0.00;;;;;;;;;;5046048;28;20474;-55
2021/08/29 13:58:43;;;;;;;1.00;0.13;;;;;;;;;;5051241;28;20547;-54
2021/08/29 14:01:09;;;;;;;0.20;0.10;;;;;;;;;;5054731;28;20400;-54
2021/08/29 14:03:35;;;;;;;0.30;0.20;;;;;;;;;;5057814;28;20476;-56
2021/08/29 14:06:01;;;;;;;0.10;0.10;;;;;;;;;;5049717;28;20412;-57
2021/08/29 14:08:27;;;;;;;0.32;0.10;;;;;;;;;;5043743;28;20412;-54
2021/08/29 14:10:53;;;;;;;0.10;0.10;;;;;;;;;;5049648;28;20439;-57
2021/08/29 14:13:19;;;;;;;0.37;0.10;;;;;;;;;;5041232;28;20401;-57
2021/08/29 14:15:45;;;;;;;0.30;0.15;;;;;;;;;;5053848;28;20422;-56
2021/08/29 14:18:11;;;;;;;0.28;0.10;;;;;;;;;;5052496;28;20899;-56
2021/08/29 14:20:37;;;;;;;0.10;0.10;;;;;;;;;;5044178;28;20464;-56
2021/08/29 14:23:03;;;;;;;0.20;0.10;;;;;;;;;;5046543;28;20467;-56
2021/08/29 14:25:29;;;;;;;0.30;0.10;;;;;;;;;;5047411;28;20415;-57
2021/08/29 14:27:55;;;;;;;0.20;0.10;;;;;;;;;;5050745;28;20525;-56
2021/08/29 14:30:22;;;;;;;0.30;0.15;;;;;;;;;;5052842;28;20745;-57
2021/08/29 14:32:49;;;;;;;0.10;0.10;;;;;;;;;;5044698;28;20487;-54
2021/08/29 14:35:16;;;;;;;0.30;0.10;;;;;;;;;;5044031;28;20764;-56
2021/08/29 14:37:43;;;;;;;0.57;0.20;;;;;;;;;;5052017;28;20557;-57
2021/08/29 14:40:10;;;;;;;0.30;0.20;;;;;;;;;;5048020;28;20863;-55
2021/08/29 14:42:36;;;;;;;1.42;0.17;;;;;;;;;;5056690;28;20457;-55
2021/08/29 14:45:02;;;;;;;1.00;0.30;;;;;;;;;;5052839;28;20389;-55